createdAt,value
2023-05-17T00:00:28.988Z,97922.56
2023-05-17T00:02:55.800Z,97920.44
2023-05-17T00:05:22.737Z,97918.53
2023-05-17T00:07:49.597Z,97916.31
2023-05-17T00:10:16.445Z,97924.25
2023-05-17T00:12:43.239Z,97935.50
2023-05-17T00:15:10.662Z,97939.75
2023-05-17T00:17:38.069Z,97938.94
2023-05-17T00:20:06.167Z,97937.19
2023-05-17T00:22:32.941Z,97940.69
2023-05-17T00:24:59.784Z,97933.13
2023-05-17T00:27:26.571Z,97932.75
2023-05-17T00:29:53.369Z,97928.94
2023-05-17T00:32:20.168Z,97937.91
2023-05-17T00:34:46.975Z,97931.31
2023-05-17T00:37:13.770Z,97938.44
2023-05-17T00:39:43.148Z,97939.56
2023-05-17T00:42:11.526Z,97946.47
2023-05-17T00:44:38.392Z,97948.41
2023-05-17T00:47:05.451Z,97951.88
2023-05-17T00:49:32.632Z,97961.50
2023-05-17T00:52:00.402Z,97965.19
2023-05-17T00:54:27.634Z,97967.94
2023-05-17T00:56:57.030Z,97965.56
2023-05-17T00:59:24.570Z,97964.03
2023-05-17T01:01:52.426Z,97956.47
2023-05-17T01:04:19.333Z,97964.22
2023-05-17T01:06:46.265Z,97965.78
2023-05-17T01:09:13.688Z,97968.56
2023-05-17T01:12:03.778Z,97966.41
2023-05-17T01:15:17.907Z,97967.78
2023-05-17T01:17:57.610Z,97976.97
2023-05-17T01:20:45.395Z,97971.47
2023-05-17T01:23:53.459Z,97972.91
2023-05-17T01:26:37.135Z,97971.50
2023-05-17T01:29:07.826Z,97970.94
2023-05-17T01:31:39.187Z,97977.06
2023-05-17T01:34:09.479Z,97978.16
2023-05-17T01:36:37.193Z,97990.22
2023-05-17T01:39:04.054Z,97982.84
2023-05-17T01:41:40.848Z,97984.00
2023-05-17T01:44:33.128Z,97989.31
2023-05-17T01:47:16.253Z,97995.41
2023-05-17T01:49:51.773Z,97996.47
2023-05-17T01:52:27.163Z,97994.03
2023-05-17T01:55:07.591Z,97993.94
2023-05-17T01:57:37.874Z,98008.44
2023-05-17T02:00:09.622Z,98003.28
2023-05-17T02:02:37.026Z,98009.19
2023-05-17T02:05:04.255Z,98002.38
2023-05-17T02:07:31.229Z,98002.28
2023-05-17T02:09:58.032Z,98014.44
2023-05-17T02:12:25.383Z,98016.94
2023-05-17T02:14:52.191Z,98016.03
2023-05-17T02:17:19.110Z,98011.94
2023-05-17T02:19:48.786Z,98012.34
2023-05-17T02:22:15.912Z,98020.16
2023-05-17T02:24:42.676Z,98011.06
2023-05-17T02:27:09.437Z,98021.88
2023-05-17T02:29:36.670Z,98016.22
2023-05-17T02:32:03.754Z,98010.47
2023-05-17T02:34:30.547Z,98016.00
2023-05-17T02:36:57.308Z,98013.59
2023-05-17T02:39:24.073Z,98024.28
2023-05-17T02:41:50.924Z,98027.19
2023-05-17T02:44:17.712Z,98028.41
2023-05-17T02:46:44.505Z,98019.25
2023-05-17T02:49:17.492Z,98022.22
2023-05-17T02:51:44.277Z,98020.16
2023-05-17T02:54:11.200Z,98022.31
2023-05-17T02:56:37.975Z,98012.38
2023-05-17T02:59:04.809Z,98028.91
2023-05-17T03:01:31.581Z,98022.25
2023-05-17T03:03:58.535Z,98025.00
2023-05-17T03:06:25.619Z,98020.03
2023-05-17T03:08:52.416Z,98028.66
2023-05-17T03:11:19.178Z,98022.84
2023-05-17T03:13:51.872Z,98027.28
2023-05-17T03:16:19.148Z,98030.00
2023-05-17T03:18:46.051Z,98038.78
2023-05-17T03:21:12.945Z,98043.03
2023-05-17T03:23:39.704Z,98037.81
2023-05-17T03:26:06.844Z,98044.63
2023-05-17T03:28:33.670Z,98047.94
2023-05-17T03:31:00.638Z,98047.13
2023-05-17T03:33:27.497Z,98050.44
2023-05-17T03:35:54.298Z,98054.69
2023-05-17T03:38:21.125Z,98055.47
2023-05-17T03:40:47.991Z,98064.88
2023-05-17T03:43:14.868Z,98068.78
2023-05-17T03:45:41.669Z,98066.91
2023-05-17T03:48:08.491Z,98071.22
2023-05-17T03:50:35.475Z,98065.94
2023-05-17T03:53:02.353Z,98066.63
2023-05-17T03:55:29.315Z,98071.59
2023-05-17T03:57:56.169Z,98068.97
2023-05-17T04:00:23.845Z,98084.34
2023-05-17T04:02:52.045Z,98080.81
2023-05-17T04:05:19.920Z,98080.56
2023-05-17T04:07:46.724Z,98085.34
2023-05-17T04:10:13.598Z,98084.13
2023-05-17T04:12:40.411Z,98089.97
2023-05-17T04:15:08.142Z,98097.25
2023-05-17T04:17:34.952Z,98099.59
2023-05-17T04:20:02.604Z,98099.38
2023-05-17T04:22:29.351Z,98097.47
2023-05-17T04:24:56.094Z,98106.50
2023-05-17T04:27:23.136Z,98101.75
2023-05-17T04:29:49.910Z,98111.53
2023-05-17T04:32:18.003Z,98112.66
2023-05-17T04:34:44.810Z,98112.03
2023-05-17T04:37:11.660Z,98112.00
2023-05-17T04:39:38.496Z,98110.38
2023-05-17T04:42:05.754Z,98112.72
2023-05-17T04:44:32.558Z,98109.94
2023-05-17T04:46:59.317Z,98119.06
2023-05-17T04:49:26.547Z,98119.53
2023-05-17T04:51:53.303Z,98124.34
2023-05-17T04:54:20.154Z,98136.13
2023-05-17T04:56:47.043Z,98140.91
2023-05-17T04:59:16.552Z,98132.97
2023-05-17T05:01:43.323Z,98133.75
2023-05-17T05:04:10.251Z,98131.94
2023-05-17T05:06:37.123Z,98127.56
2023-05-17T05:09:04.198Z,98139.63
2023-05-17T05:11:31.981Z,98133.78
2023-05-17T05:13:58.802Z,98141.84
2023-05-17T05:16:26.081Z,98145.41
2023-05-17T05:18:53.055Z,98147.44
2023-05-17T05:21:20.150Z,98147.78
2023-05-17T05:23:46.893Z,98156.19
2023-05-17T05:26:13.630Z,98159.53
2023-05-17T05:28:40.445Z,98153.13
2023-05-17T05:31:07.211Z,98166.53
2023-05-17T05:33:34.196Z,98164.41
2023-05-17T05:36:01.022Z,98156.13
2023-05-17T05:38:27.847Z,98173.69
2023-05-17T05:40:54.688Z,98163.66
2023-05-17T05:43:21.440Z,98172.50
2023-05-17T05:45:48.216Z,98170.34
2023-05-17T05:48:15.367Z,98182.91
2023-05-17T05:50:44.215Z,98182.22
2023-05-17T05:53:18.925Z,98178.31
2023-05-17T05:55:46.767Z,98186.31
2023-05-17T05:58:13.570Z,98183.72
2023-05-17T06:00:40.431Z,98186.44
2023-05-17T06:03:07.358Z,98196.78
2023-05-17T06:05:34.271Z,98194.63
2023-05-17T06:08:01.095Z,98193.91
2023-05-17T06:10:28.132Z,98201.81
2023-05-17T06:12:55.049Z,98194.84
2023-05-17T06:15:21.808Z,98194.50
2023-05-17T06:17:48.783Z,98194.91
2023-05-17T06:20:16.442Z,98201.25
2023-05-17T06:22:44.480Z,98206.53
2023-05-17T06:25:11.806Z,98204.31
2023-05-17T06:27:38.699Z,98203.69
2023-05-17T06:30:07.552Z,98203.47
2023-05-17T06:32:35.223Z,98205.66
2023-05-17T06:35:02.455Z,98201.03
2023-05-17T06:37:29.412Z,98204.56
2023-05-17T06:40:10.529Z,98205.03
2023-05-17T06:42:43.092Z,98204.50
2023-05-17T06:45:10.870Z,98197.06
2023-05-17T06:47:37.822Z,98204.22
2023-05-17T06:50:05.530Z,98196.59
2023-05-17T06:52:32.460Z,98206.56
2023-05-17T06:54:59.224Z,98205.31
2023-05-17T06:57:26.187Z,98205.09
2023-05-17T06:59:53.002Z,98212.19
2023-05-17T07:02:20.040Z,98208.41
2023-05-17T07:04:46.897Z,98212.00
2023-05-17T07:07:13.754Z,98212.47
2023-05-17T07:09:41.273Z,98211.44
2023-05-17T07:12:08.265Z,98204.34
2023-05-17T07:14:35.425Z,98208.50
2023-05-17T07:17:02.203Z,98200.13
2023-05-17T07:19:29.024Z,98209.47
2023-05-17T07:21:55.919Z,98207.72
2023-05-17T07:24:22.740Z,98199.69
2023-05-17T07:26:50.872Z,98201.16
2023-05-17T07:29:19.048Z,98207.44
2023-05-17T07:31:45.835Z,98208.84
2023-05-17T07:34:13.660Z,98208.84
2023-05-17T07:36:40.578Z,98213.50
2023-05-17T07:39:08.693Z,98212.56
2023-05-17T07:41:36.371Z,98204.94
2023-05-17T07:44:03.257Z,98217.41
2023-05-17T07:46:30.100Z,98211.38
2023-05-17T07:48:58.715Z,98215.63
2023-05-17T07:51:26.238Z,98213.84
2023-05-17T07:53:53.095Z,98218.38
2023-05-17T07:56:19.936Z,98229.88
2023-05-17T07:58:46.761Z,98217.28
2023-05-17T08:01:13.614Z,98220.94
2023-05-17T08:03:47.547Z,98216.31
2023-05-17T08:06:16.443Z,98216.00
2023-05-17T08:08:44.510Z,98211.47
2023-05-17T08:11:12.703Z,98221.81
2023-05-17T08:13:39.508Z,98227.69
2023-05-17T08:16:13.716Z,98225.09
2023-05-17T08:18:43.759Z,98220.03
2023-05-17T08:21:11.366Z,98221.34
2023-05-17T08:23:39.313Z,98206.75
2023-05-17T08:26:06.600Z,98219.59
2023-05-17T08:28:33.750Z,98212.88
2023-05-17T08:31:00.588Z,98216.94
2023-05-17T08:33:27.512Z,98219.66
2023-05-17T08:35:55.304Z,98208.31
2023-05-17T08:38:22.378Z,98215.88
2023-05-17T08:40:56.926Z,98218.75
2023-05-17T08:43:26.830Z,98221.75
2023-05-17T08:45:57.369Z,98228.09
2023-05-17T08:48:24.727Z,98229.97
2023-05-17T08:50:54.981Z,98228.09
2023-05-17T08:53:22.672Z,98224.91
2023-05-17T08:55:53.516Z,98227.25
2023-05-17T08:58:27.465Z,98228.75
2023-05-17T09:00:56.305Z,98223.78
2023-05-17T09:03:25.325Z,98232.69
2023-05-17T09:05:53.470Z,98232.09
2023-05-17T09:08:23.166Z,98234.72
2023-05-17T09:10:50.605Z,98238.53
2023-05-17T09:13:17.535Z,98233.78
2023-05-17T09:15:47.759Z,98239.81
2023-05-17T09:18:17.052Z,98235.91
2023-05-17T09:20:51.615Z,98238.97
2023-05-17T09:23:21.320Z,98243.44
2023-05-17T09:25:49.808Z,98250.75
2023-05-17T09:28:22.065Z,98245.97
2023-05-17T09:30:49.858Z,98256.66
2023-05-17T09:33:21.360Z,98247.69
2023-05-17T09:35:48.140Z,98255.03
2023-05-17T09:38:14.917Z,98261.34
2023-05-17T09:40:47.790Z,98270.03
2023-05-17T09:43:22.936Z,98266.22
2023-05-17T09:45:58.431Z,98259.00
2023-05-17T09:48:28.074Z,98271.97
2023-05-17T09:50:55.098Z,98269.84
2023-05-17T09:53:30.308Z,98270.31
2023-05-17T09:56:00.683Z,98279.69
2023-05-17T09:58:29.061Z,98277.00
2023-05-17T10:01:01.759Z,98276.13
2023-05-17T10:03:36.749Z,98274.13
2023-05-17T10:06:08.790Z,98279.47
2023-05-17T10:08:38.482Z,98276.75
2023-05-17T10:11:11.013Z,98280.63
2023-05-17T10:13:47.328Z,98273.28
2023-05-17T10:16:14.799Z,98282.53
2023-05-17T10:18:41.940Z,98282.03
2023-05-17T10:21:10.610Z,98279.28
2023-05-17T10:23:39.072Z,98281.69
2023-05-17T10:26:06.582Z,98282.84
2023-05-17T10:28:34.888Z,98277.88
2023-05-17T10:31:04.174Z,98276.47
2023-05-17T10:33:33.250Z,98279.81
2023-05-17T10:36:06.246Z,98274.59
2023-05-17T10:38:41.757Z,98282.28
2023-05-17T10:41:14.074Z,98270.19
2023-05-17T10:43:43.564Z,98276.72
2023-05-17T10:46:18.475Z,98269.47
2023-05-17T10:48:48.882Z,98263.53
2023-05-17T10:51:18.770Z,98266.97
2023-05-17T10:54:18.365Z,98262.47
2023-05-17T10:56:50.450Z,98253.91
2023-05-17T10:59:26.811Z,98258.91
2023-05-17T11:02:05.266Z,98259.16
2023-05-17T11:04:33.636Z,98257.84
2023-05-17T11:07:19.169Z,98255.16
2023-05-17T11:10:03.593Z,98256.31
2023-05-17T11:12:47.882Z,98248.16
2023-05-17T11:15:16.818Z,98248.53
2023-05-17T11:17:43.906Z,98256.56
2023-05-17T11:20:32.925Z,98252.66
2023-05-17T11:23:06.901Z,98250.19
2023-05-17T11:25:39.468Z,98246.88
2023-05-17T11:28:18.646Z,98249.09
2023-05-17T11:30:51.483Z,98248.03
2023-05-17T11:33:33.123Z,98257.53
2023-05-17T11:36:07.279Z,98254.78
2023-05-17T11:38:34.663Z,98249.34
2023-05-17T11:43:49.733Z,98243.50
2023-05-17T11:46:22.664Z,98244.09
2023-05-17T11:48:54.008Z,98236.16
2023-05-17T11:51:24.663Z,98238.78
2023-05-17T11:53:55.371Z,98230.47
2023-05-17T11:56:35.555Z,98236.31
2023-05-17T11:59:10.353Z,98236.88
2023-05-17T12:01:48.743Z,98245.22
2023-05-17T12:04:25.663Z,98245.53
2023-05-17T12:06:56.463Z,98238.66
2023-05-17T12:09:24.186Z,98240.19
2023-05-17T12:11:51.044Z,98241.16
2023-05-17T12:14:18.521Z,98238.66
2023-05-17T12:16:50.692Z,98235.22
2023-05-17T12:19:23.612Z,98244.09
2023-05-17T12:21:51.397Z,98242.97
2023-05-17T12:24:18.592Z,98245.00
2023-05-17T12:26:47.286Z,98242.34
2023-05-17T12:29:19.434Z,98241.25
2023-05-17T12:31:50.564Z,98245.72
2023-05-17T12:34:18.469Z,98237.13
2023-05-17T12:36:45.675Z,98239.00
2023-05-17T12:39:14.449Z,98244.47
2023-05-17T12:41:42.840Z,98238.88
2023-05-17T12:44:15.583Z,98240.78
2023-05-17T12:46:43.928Z,98250.28
2023-05-17T12:49:12.158Z,98246.56
2023-05-17T12:51:46.970Z,98248.22
2023-05-17T12:54:23.668Z,98245.75
2023-05-17T12:56:50.465Z,98253.72
2023-05-17T12:59:20.737Z,98253.16
2023-05-17T13:01:53.277Z,98248.41
2023-05-17T13:04:21.398Z,98251.97
2023-05-17T13:06:54.568Z,98251.84
2023-05-17T13:09:24.064Z,98265.19
2023-05-17T13:11:57.937Z,98259.81
2023-05-17T13:14:47.406Z,98252.06
2023-05-17T13:17:40.365Z,98255.88
2023-05-17T13:20:10.559Z,98262.50
2023-05-17T13:22:45.964Z,98256.31
2023-05-17T13:25:14.384Z,98256.31
2023-05-17T13:27:46.596Z,98264.44
2023-05-17T13:30:13.852Z,98261.81
2023-05-17T13:32:40.816Z,98253.97
2023-05-17T13:35:08.059Z,98249.69
2023-05-17T13:37:35.995Z,98254.78
2023-05-17T13:40:07.160Z,98252.06
2023-05-17T13:42:34.448Z,98252.50
2023-05-17T13:45:03.992Z,98255.94
2023-05-17T13:47:32.042Z,98252.50
2023-05-17T13:50:00.892Z,98251.31
2023-05-17T13:52:28.122Z,98251.94
2023-05-17T13:54:54.998Z,98246.06
2023-05-17T13:57:21.912Z,98249.69
2023-05-17T13:59:48.750Z,98250.69
2023-05-17T14:02:15.855Z,98242.22
2023-05-17T14:04:42.719Z,98254.97
2023-05-17T14:07:09.524Z,98246.41
2023-05-17T14:09:36.899Z,98250.66
2023-05-17T14:12:04.079Z,98229.19
2023-05-17T14:14:31.746Z,98239.13
2023-05-17T14:16:59.012Z,98241.31
2023-05-17T14:19:26.008Z,98238.25
2023-05-17T14:21:52.973Z,98250.16
2023-05-17T14:24:19.954Z,98244.47
2023-05-17T14:26:46.813Z,98253.72
2023-05-17T14:29:13.644Z,98249.44
2023-05-17T14:31:41.471Z,98251.22
2023-05-17T14:34:08.317Z,98238.84
2023-05-17T14:36:36.369Z,98235.78
2023-05-17T14:39:04.282Z,98237.06
2023-05-17T14:41:31.349Z,98245.47
2023-05-17T14:43:58.221Z,98239.47
2023-05-17T14:46:25.018Z,98239.84
2023-05-17T14:48:52.318Z,98230.63
2023-05-17T14:51:19.748Z,98234.34
2023-05-17T14:53:46.549Z,98228.59
2023-05-17T14:56:15.104Z,98231.44
2023-05-17T14:58:42.223Z,98230.03
2023-05-17T15:01:09.172Z,98231.31
2023-05-17T15:03:36.156Z,98231.75
2023-05-17T15:06:06.867Z,98239.72
2023-05-17T15:08:35.133Z,98236.72
2023-05-17T15:11:02.105Z,98241.91
2023-05-17T15:13:28.936Z,98240.69
2023-05-17T15:15:55.766Z,98248.63
2023-05-17T15:18:22.543Z,98242.50
2023-05-17T15:20:49.502Z,98243.59
2023-05-17T15:23:16.452Z,98240.09
2023-05-17T15:25:43.231Z,98241.81
2023-05-17T15:28:10.045Z,98240.50
2023-05-17T15:30:36.937Z,98235.69
2023-05-17T15:33:04.145Z,98245.19
2023-05-17T15:35:31.287Z,98238.44
2023-05-17T15:37:59.620Z,98234.38
2023-05-17T15:40:32.472Z,98242.38
2023-05-17T15:43:00.352Z,98236.50
2023-05-17T15:45:27.269Z,98230.59
2023-05-17T15:47:56.491Z,98231.81
2023-05-17T15:50:23.294Z,98230.44
2023-05-17T15:52:50.074Z,98231.16
2023-05-17T15:55:17.087Z,98230.34
2023-05-17T15:57:43.912Z,98229.94
2023-05-17T16:00:11.702Z,98229.78
2023-05-17T16:02:38.542Z,98220.16
2023-05-17T16:05:07.205Z,98220.97
2023-05-17T16:07:33.969Z,98228.38
2023-05-17T16:10:00.775Z,98212.66
2023-05-17T16:12:27.654Z,98222.91
2023-05-17T16:14:54.415Z,98216.53
2023-05-17T16:17:21.317Z,98216.13
2023-05-17T16:19:48.108Z,98210.75
2023-05-17T16:22:14.963Z,98217.38
2023-05-17T16:24:41.916Z,98211.41
2023-05-17T16:27:08.707Z,98207.16
2023-05-17T16:29:39.759Z,98207.94
2023-05-17T16:32:08.032Z,98209.06
2023-05-17T16:34:35.032Z,98223.72
2023-05-17T16:37:02.411Z,98219.31
2023-05-17T16:39:29.219Z,98221.53
2023-05-17T16:41:56.110Z,98219.84
2023-05-17T16:44:22.907Z,98223.84
2023-05-17T16:46:50.479Z,98223.41
2023-05-17T16:49:17.405Z,98213.44
2023-05-17T16:51:45.346Z,98219.09
2023-05-17T16:54:12.314Z,98217.72
2023-05-17T16:56:39.268Z,98212.59
2023-05-17T16:59:06.062Z,98218.06
2023-05-17T17:01:33.128Z,98220.59
2023-05-17T17:04:00.257Z,98210.59
2023-05-17T17:06:27.221Z,98221.03
2023-05-17T17:08:53.991Z,98219.78
2023-05-17T17:11:21.798Z,98214.41
2023-05-17T17:13:49.383Z,98223.09
2023-05-17T17:16:16.164Z,98222.28
2023-05-17T17:18:43.112Z,98224.06
2023-05-17T17:21:10.585Z,98223.22
2023-05-17T17:23:37.709Z,98230.34
2023-05-17T17:26:04.664Z,98224.50
2023-05-17T17:28:31.441Z,98226.00
2023-05-17T17:30:58.436Z,98232.72
2023-05-17T17:33:25.336Z,98228.94
2023-05-17T17:35:52.733Z,98234.56
2023-05-17T17:38:19.540Z,98229.03
2023-05-17T17:40:46.333Z,98242.13
2023-05-17T17:43:13.188Z,98241.16
2023-05-17T17:45:40.035Z,98234.25
2023-05-17T17:48:07.010Z,98236.88
2023-05-17T17:50:34.050Z,98249.63
2023-05-17T17:53:01.223Z,98248.38
2023-05-17T17:55:28.082Z,98249.81
2023-05-17T17:57:54.903Z,98257.22
2023-05-17T18:00:22.940Z,98254.28
2023-05-17T18:02:49.761Z,98250.41
2023-05-17T18:05:16.604Z,98253.47
2023-05-17T18:07:43.422Z,98255.91
2023-05-17T18:10:10.680Z,98250.31
2023-05-17T18:12:37.451Z,98250.84
2023-05-17T18:15:05.491Z,98251.44
2023-05-17T18:17:32.301Z,98254.78
2023-05-17T18:19:59.250Z,98263.41
2023-05-17T18:22:26.099Z,98261.25
2023-05-17T18:24:52.918Z,98256.03
2023-05-17T18:27:20.074Z,98258.56
2023-05-17T18:29:46.884Z,98265.34
2023-05-17T18:32:13.747Z,98266.06
2023-05-17T18:34:40.660Z,98268.69
2023-05-17T18:37:07.596Z,98263.34
2023-05-17T18:39:34.519Z,98263.22
2023-05-17T18:42:01.460Z,98262.34
2023-05-17T18:44:28.309Z,98270.28
2023-05-17T18:46:56.808Z,98274.53
2023-05-17T18:49:23.739Z,98270.03
2023-05-17T18:51:50.611Z,98273.22
2023-05-17T18:54:17.377Z,98272.13
2023-05-17T18:56:44.273Z,98274.59
2023-05-17T18:59:11.166Z,98269.00
2023-05-17T19:01:38.410Z,98279.16
2023-05-17T19:04:05.846Z,98276.19
2023-05-17T19:06:32.792Z,98282.16
2023-05-17T19:08:59.773Z,98282.00
2023-05-17T19:11:28.596Z,98292.38
2023-05-17T19:13:56.082Z,98290.56
2023-05-17T19:16:22.899Z,98291.16
2023-05-17T19:18:50.206Z,98298.69
2023-05-17T19:21:17.199Z,98310.50
2023-05-17T19:23:44.092Z,98311.84
2023-05-17T19:26:11.002Z,98309.81
2023-05-17T19:28:37.954Z,98317.19
2023-05-17T19:31:04.921Z,98301.47
2023-05-17T19:33:34.562Z,98318.38
2023-05-17T19:36:01.558Z,98321.47
2023-05-17T19:38:28.441Z,98329.00
2023-05-17T19:40:55.203Z,98333.78
2023-05-17T19:43:21.977Z,98335.03
2023-05-17T19:45:48.765Z,98341.34
2023-05-17T19:48:15.903Z,98332.09
2023-05-17T19:50:42.839Z,98336.56
2023-05-17T19:53:09.825Z,98336.78
2023-05-17T19:55:36.635Z,98329.16
2023-05-17T19:58:03.668Z,98337.91
2023-05-17T20:00:32.578Z,98341.56
2023-05-17T20:02:59.681Z,98343.31
2023-05-17T20:05:27.179Z,98344.38
2023-05-17T20:07:55.164Z,98340.94
2023-05-17T20:10:22.277Z,98333.34
2023-05-17T20:12:49.086Z,98343.53
2023-05-17T20:15:16.182Z,98333.34
2023-05-17T20:17:43.007Z,98338.81
2023-05-17T20:20:10.103Z,98335.50
2023-05-17T20:22:37.679Z,98343.63
2023-05-17T20:25:04.850Z,98354.13
2023-05-17T20:27:31.652Z,98355.06
2023-05-17T20:29:58.472Z,98357.75
2023-05-17T20:32:25.487Z,98356.91
2023-05-17T20:34:52.402Z,98358.66
2023-05-17T20:37:19.171Z,98357.94
2023-05-17T20:39:46.260Z,98362.31
2023-05-17T20:42:18.059Z,98364.28
2023-05-17T20:44:45.352Z,98371.34
2023-05-17T20:47:12.194Z,98360.75
2023-05-17T20:49:38.959Z,98363.97
2023-05-17T20:52:06.387Z,98358.59
2023-05-17T20:54:33.287Z,98360.16
2023-05-17T20:57:00.481Z,98364.31
2023-05-17T20:59:27.284Z,98366.81
2023-05-17T21:01:54.112Z,98376.28
2023-05-17T21:04:21.144Z,98365.13
2023-05-17T21:06:47.947Z,98374.72
2023-05-17T21:09:14.724Z,98368.78
2023-05-17T21:11:41.500Z,98376.13
2023-05-17T21:14:08.476Z,98379.03
2023-05-17T21:16:35.409Z,98375.81
2023-05-17T21:19:02.573Z,98374.44
2023-05-17T21:21:29.465Z,98369.44
2023-05-17T21:23:56.274Z,98376.78
2023-05-17T21:26:23.140Z,98369.41
2023-05-17T21:28:49.924Z,98369.84
2023-05-17T21:31:16.804Z,98366.81
2023-05-17T21:33:43.810Z,98370.63
2023-05-17T21:36:10.653Z,98374.56
2023-05-17T21:38:37.503Z,98371.50
2023-05-17T21:41:04.334Z,98375.44
2023-05-17T21:43:31.196Z,98370.44
2023-05-17T21:45:57.995Z,98375.06
2023-05-17T21:48:24.769Z,98372.88
2023-05-17T21:50:51.576Z,98375.09
2023-05-17T21:53:18.398Z,98377.34
2023-05-17T21:55:56.832Z,98370.00
2023-05-17T21:58:28.621Z,98365.28
2023-05-17T22:00:55.463Z,98364.84
2023-05-17T22:03:22.539Z,98365.19
2023-05-17T22:05:49.425Z,98371.50
2023-05-17T22:08:16.249Z,98365.69
2023-05-17T22:10:43.446Z,98357.31
2023-05-17T22:13:12.207Z,98364.47
2023-05-17T22:15:39.228Z,98369.00
2023-05-17T22:18:06.069Z,98366.59
2023-05-17T22:20:33.048Z,98372.88
2023-05-17T22:22:59.956Z,98366.13
2023-05-17T22:25:26.696Z,98367.03
2023-05-17T22:27:53.466Z,98366.22
2023-05-17T22:30:20.452Z,98370.66
2023-05-17T22:32:47.286Z,98365.66
2023-05-17T22:35:14.294Z,98366.50
2023-05-17T22:37:42.613Z,98366.50
2023-05-17T22:40:10.690Z,98372.66
2023-05-17T22:42:37.610Z,98368.50
2023-05-17T22:45:04.703Z,98365.19
2023-05-17T22:47:31.838Z,98371.38
2023-05-17T22:50:00.676Z,98364.53
2023-05-17T22:52:27.498Z,98375.63
2023-05-17T22:54:54.277Z,98381.75
2023-05-17T22:57:21.057Z,98371.38
2023-05-17T22:59:47.841Z,98385.09
2023-05-17T23:02:14.674Z,98374.72
2023-05-17T23:04:41.494Z,98377.31
2023-05-17T23:07:09.711Z,98373.78
2023-05-17T23:09:40.240Z,98372.84
2023-05-17T23:12:08.608Z,98370.44
2023-05-17T23:14:36.500Z,98372.22
2023-05-17T23:17:04.757Z,98378.50
2023-05-17T23:19:33.140Z,98373.47
2023-05-17T23:22:03.948Z,98373.66
2023-05-17T23:24:30.714Z,98367.84
2023-05-17T23:26:57.665Z,98373.22
2023-05-17T23:29:25.972Z,98365.78
2023-05-17T23:31:53.294Z,98369.47
2023-05-17T23:34:20.227Z,98359.44
2023-05-17T23:36:47.035Z,98363.97
2023-05-17T23:39:13.787Z,98366.84
2023-05-17T23:41:40.577Z,98366.16
2023-05-17T23:44:07.811Z,98366.59
2023-05-17T23:46:34.628Z,98364.34
2023-05-17T23:49:02.302Z,98368.22
2023-05-17T23:51:29.425Z,98357.53
2023-05-17T23:53:56.324Z,98366.66
2023-05-17T23:56:23.323Z,98364.56
2023-05-17T23:58:50.426Z,98376.16
